Prince Rupert Airport
CYPR : rendu visible

Aérodrome :











RETROUVEZ-NOUS SUR...

 
LOGIN :

S'inscrire | Disclaimer

   EN    FR    IT 

 









Légende :    VFR   VFR Marginal   IFR   IFR Intensif   IFR Très Intensif
Visi : 
Plafond : 
>= 8 km
>= 3000ft
5 à 8 km
1000 à 3000 ft
1500m à 5 km
500 à 1000 ft
800 à 1500m
200 à 500 ft
< 800m
< 200 ft
Symboles :   Orages  Brouillard  Fortes neiges  Fortes précipitations  Vent > 20 kt






- Altitude de l'aérodrome : 116 ft
- Code IATA : YPR


CYPR - Prince Rupert

DERNIER METAR :
  • 290624Z AUTO VRB05KT 7SM RA SCT007 BKN010 BKN017 OVC025 04/03 A2946 RMK SLP979

METARs EXPIRÉS :
  • 290603Z AUTO 18004KT 120V210 6SM -RA BR BKN011 OVC019 03/03 A2946 RMK SLP978
  • 290555Z AUTO 15006KT 5SM -RA BR BKN013 OVC021 03/03 A2946 RMK SLP978
  • 290500Z AUTO 12005KT 9SM -RA BKN013 OVC025 03/03 A2945 RMK SLP975
  • 290439Z AUTO 13006KT 6SM -RA BR FEW009 BKN015 OVC023 03/03 A2944 RMK SLP973
  • 290432Z AUTO 12007KT 5SM -RA BR FEW009 BKN015 OVC023 03/03 A2944 RMK SLP973
  • 290403Z AUTO 12006KT 7SM -RA FEW017 OVC025 04/03 A2944 RMK SLP971
  • 290345Z AUTO 18003KT 150V240 5SM RA BR SCT012 BKN017 OVC021 04/03 A2944 RMK SLP971

TAF AMD TAF CYPR
Valide du 29 à 01h jusqu'au 29 à 13h UTC


290045Z 2901/2913 14006KT P6SM -RA SCT015 BKN030 OVC050
TEMPO 2901/2906 2SM -RA BR SCT006 OVC012
BECMG 2901/2903 25008KT
FM290600 27008KT 6SM -RA BR OVC020
TEMPO 2906/2913 3SM -RA BR OVC006 RMK FCST BASED ON AUTO OBS. NXT FCST BY 290700Z



MET'MAP, la Météo Aéronautique d'un coup d'oeil ! - Copyright ORBIFLY Décembre 2007 - Disclaimer

ORBIFLY MET'MAP TEAM :

Programmation & Développement : Alexandra Zaïnal
Sur une idée originale de : Baudouin d'Aumeries
Assistance à la programmation : Marc-Olivier Méhu
Soutien technique & logistique : Manuel Goepfert

Contact : metmap@orbifly.com




SOURCES & CREDITS :

   NOAA       Earth
Advisory